Reedville, Vermont
Current Conditions -  °F | °C
As of 3:54 AM on Wednesday 26 Nov 2014 (Local Time) from KVSF Reporting Station
Clear Clear  
Wind Chill: 36°   Ceiling: Unl
Heat Index: 40°   Visibility: 10mi
Dew Point: 26°   Wind: 6mph
Humidity: 58%   Direction: 300°WNW
Pressure: 30.18"   Gusts: NA
Location:  43.2811°N, 72.6352°W
Report Text: KVSF 260854Z AUTO 30005KT 10SM CLR 04/M03 A3018 RMK AO2 SLP224 T00441033 51018
Loading
Personal Weather Stations






























Interactive Weather Map New forecast layout! Learn more

10-Day Weather Forecast

Advertisements
Track Severe Weather on mobile